• Join FlightAware (Why Join?)
  • Login
  • US Flag 
04:34AM EDT


 

Airport Tracker/Info


-or-


 

Live Flight TrackerFlight Track Log ✈ KAP1143 ✈ 19-Jun-2013 ✈ KSTL - KALN

Flight Track Log - Related Links

Times and Time Zones

All times are in EDT time to prevent confusion due to time zone crossing. See the KAP1143 flight status page for this flight to view local times or setup timezone preferences in your user account.

Time Position Orientation Groundspeed Altitude Reporting Facility
EDT Latitude Longitude Course Direction KTS MPH feet Rate Location/Type
12:03PM 38.7333 -90.3167 57° Northeast 122 140 1,400  Level Gateway (St. Louis) TRACON
12:04PM 38.7500 -90.2833 57° Northeast 135 155 2,000 600 Climbing Gateway (St. Louis) TRACON
12:05PM 38.7675 -90.2617 44° Northeast 136 157 2,400 660 Climbing Kansas City Center
12:06PM 38.7933 -90.2294 44° Northeast 143 165 3,100 480 Climbing Kansas City Center
12:07PM 38.8139 -90.1906 56° Northeast 136 157 3,500 180 Climbing Kansas City Center
12:08PM 38.8383 -90.1469 54° Northeast 142 163 3,500 -60 Level Kansas City Center
12:09PM 38.8619 -90.1039 55° Northeast 145 167 3,400 -60 Descending Kansas City Center
12:11PM 38.9167 -90.0167 51° Northeast 148 170 3,400  Level Gateway (St. Louis) TRACON
12:12PM 38.9444 -89.9750 49° Northeast 152 175 3,500  Climbing Kansas City Center
12:13PM 38.9661 -89.9386 53° Northeast 149 171 3,500  Level Kansas City Center
12:14PM 38.9628 -89.9381 173° South 174 200 3,500  Level Kansas City Center
12:15PM 38.9617 -89.9283 98° East 179 206 3,500  Level Kansas City Center
12:16PM 38.9614 -89.8828 90° East 131 151 3,500 180 Level Kansas City Center
12:17PM 38.9739 -89.8575 58° Northeast 90 104 3,900 360 Climbing Kansas City Center
12:18PM 39.0014 -89.8350 32° Northeast 113 130 4,300 240 Climbing Kansas City Center
12:19PM 39.0353 -89.8086 31° Northeast 142 163 4,400 -120 Climbing Kansas City Center
12:20PM 39.0717 -89.8056 North 160 184 4,100 -180 Descending Kansas City Center
12:21PM 39.0686 -89.7672 96° East 168 193 4,100 -300 Level Kansas City Center
12:22PM 39.0181 -89.7681 181° South 173 199 3,600 -540 Descending Kansas City Center
12:23PM 38.9675 -89.7761 187° South 182 209 3,000 -300 Descending Kansas City Center
12:24PM 38.9181 -89.7806 184° South 180 207 3,000  Level Kansas City Center
12:25PM 38.8719 -89.7906 190° South 174 200 3,000  Level Kansas City Center
12:26PM 38.8300 -89.8158 205° Southwest 171 197 3,000  Level Kansas City Center
12:27PM 38.7981 -89.8572 225° Southwest 165 190 3,000  Level Kansas City Center
12:28PM 38.7647 -89.8992 224° Southwest 167 192 3,000  Level Kansas City Center
12:29PM 38.7269 -89.9483 225° Southwest 165 190 3,000 -240 Level Kansas City Center
12:30PM 38.7178 -89.9972 257° West 160 184 2,600 -300 Descending Kansas City Center
12:31PM 38.7450 -90.0306 316° Northwest 151 174 2,400 -240 Descending Kansas City Center
12:32PM 38.7828 -90.0350 355° North 142 163 2,200 -420 Descending Kansas City Center
12:34PM 38.8178 -90.0400 354° North 135 155 1,600 -600 Descending Kansas City Center
12:35PM 38.8506 -90.0453 353° North 127 146 1,000 -540 Descending Kansas City Center
12:36PM 38.8867 -90.0494 355° North 123 142 600 60 Descending Kansas City Center
12:37PM 38.9172 -90.0550 352° North 112 129 1,200 540 Climbing Kansas City Center
12:38PM 38.9378 -90.0322 41° Northeast 120 138 1,800 480 Climbing Kansas City Center
12:39PM 38.9378 -89.9967 90° East 110 127 2,300 300 Climbing Kansas City Center
12:40PM 38.9275 -89.9514 106° East 119 137 2,500  Climbing Kansas City Center
12:41PM 38.9125 -89.9125 116° Southeast 132 152 2,400  Descending Kansas City Center
12:42PM 38.9053 -89.8597 100° East 129 148 2,500  Climbing Kansas City Center
12:43PM 38.8781 -89.8469 160° South 128 147 2,500 -60 Level Kansas City Center
12:44PM 38.8439 -89.8639 201° Southwest 131 151 2,400 -120 Descending Kansas City Center
12:45PM 38.8431 -89.9050 269° West 123 142 2,300 -300 Descending Kansas City Center
12:46PM 38.8581 -89.9464 295° West 124 143 1,800 -540 Descending Kansas City Center
12:47PM 38.8728 -89.9856 296° West 124 143 1,200 -660 Descending Kansas City Center
12:48PM 38.8889 -90.0331 294° West 123 142 500  Descending Kansas City Center
12:49PM 38.9058 -90.0547 315° West 134 154 1,300 780 Climbing Kansas City Center
12:50PM 38.9169 -90.0147 70° East 126 145 2,200 480 Climbing Kansas City Center
12:51PM 38.9267 -89.9653 76° East 125 144 2,400 120 Climbing Kansas City Center
12:52PM 38.9411 -89.9133 70° East 150 173 2,500  Climbing Kansas City Center
12:53PM 38.9208 -89.8650 118° Southeast 154 177 2,400 -60 Descending Kansas City Center
12:54PM 38.8958 -89.8236 128° Southeast 152 175 2,400  Level Kansas City Center
12:55PM 38.8683 -89.8050 152° Southeast 145 167 2,400  Level Kansas City Center
12:56PM 38.8353 -89.8242 204° Southwest 136 157 2,500 -60 Climbing Kansas City Center
12:57PM 38.8319 -89.8681 264° West 135 155 2,300 -300 Descending Kansas City Center
12:58PM 38.8469 -89.9139 293° West 139 160 2,000 -360 Descending Kansas City Center
12:59PM 38.8647 -89.9631 295° West 133 153 1,600 -540 Descending Kansas City Center
01:00PM 38.8781 -90.0044 292° West 129 148 900 -420 Descending Kansas City Center
01:01PM 38.8672 -90.0458 251° West 128 147 800 240 Descending Kansas City Center
01:02PM 38.9000 -90.0547 348° North 128 147 1,400 600 Climbing Kansas City Center
01:04PM 38.9361 -90.0608 353° North 130 150 2,100 660 Climbing Kansas City Center
01:05PM 38.9375 -90.1053 272° West 138 159 2,800 420 Climbing Kansas City Center
01:06PM 38.9272 -90.1681 258° West 144 166 3,000 60 Climbing Kansas City Center
01:07PM 38.9192 -90.2253 260° West 154 177 3,000  Level Kansas City Center
01:08PM 38.9125 -90.2839 262° West 161 185 3,000  Level Kansas City Center
01:09PM 38.9075 -90.3422 264° West 165 190 3,000  Level Kansas City Center
01:10PM 38.9011 -90.4006 262° West 166 191 3,000  Level Kansas City Center
01:11PM 38.8939 -90.4708 262° West 167 192 3,000  Level Kansas City Center
01:12PM 38.8883 -90.5281 263° West 165 190 3,000  Level Kansas City Center
01:13PM 38.8639 -90.5728 235° Southwest 170 196 3,000 -60 Level Kansas City Center
01:14PM 38.8328 -90.5417 142° Southeast 160 184 2,900 -120 Descending Kansas City Center
01:15PM 38.8139 -90.5003 120° Southeast 146 168 2,800 -480 Descending Kansas City Center
01:16PM 38.7942 -90.4606 122° Southeast 138 159 2,000 -780 Descending Kansas City Center
01:17PM 38.7736 -90.4175 121° Southeast 126 145 1,300 -720 Descending Kansas City Center
01:18PM 38.7539 -90.3783 123° Southeast 127 146 600 -720 Descending Kansas City Center